sensor_id;sensor_type;location;lat;lon;timestamp;temperature;humidity
10828;DHT22;5467;59.334;13.512;2023-03-31T00:01:59;-1.00;99.90
10828;DHT22;5467;59.334;13.512;2023-03-31T00:04:27;-1.00;99.90
10828;DHT22;5467;59.334;13.512;2023-03-31T00:06:56;-0.90;99.90
10828;DHT22;5467;59.334;13.512;2023-03-31T00:09:23;-1.00;99.90
10828;DHT22;5467;59.334;13.512;2023-03-31T00:11:55;-1.00;99.90
10828;DHT22;5467;59.334;13.512;2023-03-31T00:14:23;-1.00;99.90
10828;DHT22;5467;59.334;13.512;2023-03-31T00:16:50;-1.00;99.90
10828;DHT22;5467;59.334;13.512;2023-03-31T00:19:17;-1.00;99.90
10828;DHT22;5467;59.334;13.512;2023-03-31T00:21:45;-0.90;99.90
10828;DHT22;5467;59.334;13.512;2023-03-31T00:24:13;-0.90;99.90
10828;DHT22;5467;59.334;13.512;2023-03-31T00:26:41;-0.90;99.90
10828;DHT22;5467;59.334;13.512;2023-03-31T00:29:12;-0.90;99.90
10828;DHT22;5467;59.334;13.512;2023-03-31T00:31:39;-0.90;99.90
10828;DHT22;5467;59.334;13.512;2023-03-31T00:34:06;-0.80;99.90
10828;DHT22;5467;59.334;13.512;2023-03-31T00:36:34;-0.80;99.90
10828;DHT22;5467;59.334;13.512;2023-03-31T00:39:13;-0.80;99.90
10828;DHT22;5467;59.334;13.512;2023-03-31T00:41:41;-0.90;99.90
10828;DHT22;5467;59.334;13.512;2023-03-31T00:44:12;-0.80;99.90
10828;DHT22;5467;59.334;13.512;2023-03-31T00:46:45;-0.90;99.90
10828;DHT22;5467;59.334;13.512;2023-03-31T00:49:20;-0.80;99.90
10828;DHT22;5467;59.334;13.512;2023-03-31T00:51:49;-0.90;99.90
10828;DHT22;5467;59.334;13.512;2023-03-31T00:54:19;-0.80;99.90
10828;DHT22;5467;59.334;13.512;2023-03-31T00:56:48;-0.80;99.90
10828;DHT22;5467;59.334;13.512;2023-03-31T00:59:19;-0.80;99.90
10828;DHT22;5467;59.334;13.512;2023-03-31T01:01:53;-0.80;99.90
10828;DHT22;5467;59.334;13.512;2023-03-31T01:04:24;-0.80;99.90
10828;DHT22;5467;59.334;13.512;2023-03-31T01:06:55;-0.90;99.90
10828;DHT22;5467;59.334;13.512;2023-03-31T01:09:28;-0.90;99.90
10828;DHT22;5467;59.334;13.512;2023-03-31T01:11:59;-0.90;99.90
10828;DHT22;5467;59.334;13.512;2023-03-31T01:14:29;-1.00;99.90
10828;DHT22;5467;59.334;13.512;2023-03-31T01:16:57;-1.00;99.90
10828;DHT22;5467;59.334;13.512;2023-03-31T01:19:33;-1.00;99.90
10828;DHT22;5467;59.334;13.512;2023-03-31T01:22:23;-1.00;99.90
10828;DHT22;5467;59.334;13.512;2023-03-31T01:28:06;-1.00;99.90
10828;DHT22;5467;59.334;13.512;2023-03-31T01:31:05;-1.00;99.90
10828;DHT22;5467;59.334;13.512;2023-03-31T01:40:13;-1.00;99.90
10828;DHT22;5467;59.334;13.512;2023-03-31T01:42:45;-0.90;99.90
10828;DHT22;5467;59.334;13.512;2023-03-31T01:45:21;-0.90;99.90
10828;DHT22;5467;59.334;13.512;2023-03-31T01:47:55;-0.90;99.90
10828;DHT22;5467;59.334;13.512;2023-03-31T01:50:28;-0.90;99.90
10828;DHT22;5467;59.334;13.512;2023-03-31T01:53:02;-1.00;99.90
10828;DHT22;5467;59.334;13.512;2023-03-31T01:55:35;-1.00;99.90
10828;DHT22;5467;59.334;13.512;2023-03-31T01:58:08;-0.90;99.90
10828;DHT22;5467;59.334;13.512;2023-03-31T02:00:40;-0.90;99.90
10828;DHT22;5467;59.334;13.512;2023-03-31T02:03:15;-1.00;99.90
10828;DHT22;5467;59.334;13.512;2023-03-31T02:05:48;-0.90;99.90
10828;DHT22;5467;59.334;13.512;2023-03-31T02:08:19;-0.90;99.90
10828;DHT22;5467;59.334;13.512;2023-03-31T02:10:50;-0.90;99.90
10828;DHT22;5467;59.334;13.512;2023-03-31T02:13:20;-0.90;99.90
10828;DHT22;5467;59.334;13.512;2023-03-31T02:15:51;-1.00;99.90
10828;DHT22;5467;59.334;13.512;2023-03-31T02:18:24;-1.00;99.90
10828;DHT22;5467;59.334;13.512;2023-03-31T02:20:54;-1.00;99.90
10828;DHT22;5467;59.334;13.512;2023-03-31T02:23:26;-1.00;99.90
10828;DHT22;5467;59.334;13.512;2023-03-31T02:26:00;-0.90;99.90
10828;DHT22;5467;59.334;13.512;2023-03-31T02:28:29;-1.00;99.90
10828;DHT22;5467;59.334;13.512;2023-03-31T02:31:11;-1.00;99.90
10828;DHT22;5467;59.334;13.512;2023-03-31T02:33:40;-0.90;99.90
10828;DHT22;5467;59.334;13.512;2023-03-31T02:36:07;-0.90;99.90
10828;DHT22;5467;59.334;13.512;2023-03-31T02:38:38;-1.00;99.90
10828;DHT22;5467;59.334;13.512;2023-03-31T02:41:08;-1.00;99.90
10828;DHT22;5467;59.334;13.512;2023-03-31T02:43:36;-1.00;99.90
10828;DHT22;5467;59.334;13.512;2023-03-31T02:46:03;-1.00;99.90
10828;DHT22;5467;59.334;13.512;2023-03-31T02:48:34;-0.90;99.90
10828;DHT22;5467;59.334;13.512;2023-03-31T03:00:14;-1.00;99.90
10828;DHT22;5467;59.334;13.512;2023-03-31T03:02:53;-0.90;99.90
10828;DHT22;5467;59.334;13.512;2023-03-31T03:05:27;-0.90;99.90
10828;DHT22;5467;59.334;13.512;2023-03-31T03:08:08;-0.90;99.90
10828;DHT22;5467;59.334;13.512;2023-03-31T03:10:44;-0.90;99.90
10828;DHT22;5467;59.334;13.512;2023-03-31T03:13:23;-1.00;99.90
10828;DHT22;5467;59.334;13.512;2023-03-31T03:15:57;-0.90;99.90
10828;DHT22;5467;59.334;13.512;2023-03-31T03:18:26;-0.90;99.90
10828;DHT22;5467;59.334;13.512;2023-03-31T03:20:54;-0.90;99.90
10828;DHT22;5467;59.334;13.512;2023-03-31T03:23:21;-1.00;99.90
10828;DHT22;5467;59.334;13.512;2023-03-31T03:25:48;-1.00;99.90
10828;DHT22;5467;59.334;13.512;2023-03-31T03:28:15;-1.00;99.90
10828;DHT22;5467;59.334;13.512;2023-03-31T03:30:44;-1.00;99.90
10828;DHT22;5467;59.334;13.512;2023-03-31T03:33:11;-1.00;99.90
10828;DHT22;5467;59.334;13.512;2023-03-31T03:35:41;-1.00;99.90
10828;DHT22;5467;59.334;13.512;2023-03-31T03:38:08;-1.00;99.90
10828;DHT22;5467;59.334;13.512;2023-03-31T03:40:35;-1.70;99.90
10828;DHT22;5467;59.334;13.512;2023-03-31T03:43:03;-1.00;99.90
10828;DHT22;5467;59.334;13.512;2023-03-31T03:45:30;-1.00;99.90
10828;DHT22;5467;59.334;13.512;2023-03-31T03:47:58;-1.00;99.90
10828;DHT22;5467;59.334;13.512;2023-03-31T03:50:25;-1.00;99.90
10828;DHT22;5467;59.334;13.512;2023-03-31T03:52:52;-1.00;99.90
10828;DHT22;5467;59.334;13.512;2023-03-31T03:55:19;-1.00;99.90
10828;DHT22;5467;59.334;13.512;2023-03-31T03:57:47;-1.00;99.90
10828;DHT22;5467;59.334;13.512;2023-03-31T04:00:15;-0.90;99.90
10828;DHT22;5467;59.334;13.512;2023-03-31T04:02:42;-1.00;99.90
10828;DHT22;5467;59.334;13.512;2023-03-31T04:05:11;-1.00;99.90
10828;DHT22;5467;59.334;13.512;2023-03-31T04:07:38;-1.00;99.90
10828;DHT22;5467;59.334;13.512;2023-03-31T04:10:07;-1.00;99.90
10828;DHT22;5467;59.334;13.512;2023-03-31T04:12:34;-1.00;99.90
10828;DHT22;5467;59.334;13.512;2023-03-31T04:15:02;-1.00;99.90
10828;DHT22;5467;59.334;13.512;2023-03-31T04:17:29;-1.00;99.90
10828;DHT22;5467;59.334;13.512;2023-03-31T04:19:59;-1.00;99.90
10828;DHT22;5467;59.334;13.512;2023-03-31T04:22:30;-1.00;99.90
10828;DHT22;5467;59.334;13.512;2023-03-31T04:25:01;-1.10;99.90
10828;DHT22;5467;59.334;13.512;2023-03-31T04:27:28;-1.10;99.90
10828;DHT22;5467;59.334;13.512;2023-03-31T04:29:56;-1.00;99.90
10828;DHT22;5467;59.334;13.512;2023-03-31T04:32:23;-1.10;99.90
10828;DHT22;5467;59.334;13.512;2023-03-31T04:34:50;-1.10;99.90
10828;DHT22;5467;59.334;13.512;2023-03-31T04:37:27;-1.00;99.90
10828;DHT22;5467;59.334;13.512;2023-03-31T04:40:01;-1.10;99.90
10828;DHT22;5467;59.334;13.512;2023-03-31T04:42:33;-1.20;99.90
10828;DHT22;5467;59.334;13.512;2023-03-31T04:45:00;-1.10;99.90
10828;DHT22;5467;59.334;13.512;2023-03-31T04:47:27;-1.10;99.90
10828;DHT22;5467;59.334;13.512;2023-03-31T04:49:55;-1.10;99.90
10828;DHT22;5467;59.334;13.512;2023-03-31T04:52:22;-1.10;99.90
10828;DHT22;5467;59.334;13.512;2023-03-31T04:54:49;-1.10;99.90
10828;DHT22;5467;59.334;13.512;2023-03-31T04:57:17;-1.10;99.90
10828;DHT22;5467;59.334;13.512;2023-03-31T04:59:44;-1.10;99.90
10828;DHT22;5467;59.334;13.512;2023-03-31T05:02:12;-1.10;99.90
10828;DHT22;5467;59.334;13.512;2023-03-31T05:04:40;-1.20;99.90
10828;DHT22;5467;59.334;13.512;2023-03-31T05:07:07;-1.20;99.90
10828;DHT22;5467;59.334;13.512;2023-03-31T05:09:34;-1.20;99.90
10828;DHT22;5467;59.334;13.512;2023-03-31T05:12:01;-1.20;99.90
10828;DHT22;5467;59.334;13.512;2023-03-31T05:14:30;-1.20;99.90
10828;DHT22;5467;59.334;13.512;2023-03-31T05:16:57;-1.20;99.90
10828;DHT22;5467;59.334;13.512;2023-03-31T05:19:24;-1.20;99.90
10828;DHT22;5467;59.334;13.512;2023-03-31T05:21:51;-1.20;99.90
10828;DHT22;5467;59.334;13.512;2023-03-31T05:24:18;-1.20;99.90
10828;DHT22;5467;59.334;13.512;2023-03-31T05:26:45;-1.20;99.90
10828;DHT22;5467;59.334;13.512;2023-03-31T05:29:17;-1.20;99.90
10828;DHT22;5467;59.334;13.512;2023-03-31T05:31:46;-1.20;99.90
10828;DHT22;5467;59.334;13.512;2023-03-31T05:34:13;-0.50;99.90
10828;DHT22;5467;59.334;13.512;2023-03-31T05:36:40;-1.20;99.90
10828;DHT22;5467;59.334;13.512;2023-03-31T05:39:08;-1.20;99.90
10828;DHT22;5467;59.334;13.512;2023-03-31T05:41:35;-1.20;99.90
10828;DHT22;5467;59.334;13.512;2023-03-31T05:44:02;-1.20;99.90
10828;DHT22;5467;59.334;13.512;2023-03-31T05:46:29;-1.20;99.90
10828;DHT22;5467;59.334;13.512;2023-03-31T05:48:58;-1.10;99.90
10828;DHT22;5467;59.334;13.512;2023-03-31T05:51:25;-1.10;99.90
10828;DHT22;5467;59.334;13.512;2023-03-31T05:53:52;-1.00;99.90
10828;DHT22;5467;59.334;13.512;2023-03-31T05:56:19;-1.10;99.90
10828;DHT22;5467;59.334;13.512;2023-03-31T05:58:47;-1.10;99.90
10828;DHT22;5467;59.334;13.512;2023-03-31T06:01:16;-1.10;99.90
10828;DHT22;5467;59.334;13.512;2023-03-31T06:03:45;-1.10;99.90
10828;DHT22;5467;59.334;13.512;2023-03-31T06:06:14;-1.10;99.90
10828;DHT22;5467;59.334;13.512;2023-03-31T06:08:42;-1.10;99.90
10828;DHT22;5467;59.334;13.512;2023-03-31T06:11:12;-1.10;99.90
10828;DHT22;5467;59.334;13.512;2023-03-31T06:13:40;-1.10;99.90
10828;DHT22;5467;59.334;13.512;2023-03-31T06:16:10;-1.10;99.90
10828;DHT22;5467;59.334;13.512;2023-03-31T06:18:37;-1.10;99.90
10828;DHT22;5467;59.334;13.512;2023-03-31T06:21:05;-1.00;99.90
10828;DHT22;5467;59.334;13.512;2023-03-31T06:23:33;-1.00;99.90
10828;DHT22;5467;59.334;13.512;2023-03-31T06:26:02;-1.00;99.90
10828;DHT22;5467;59.334;13.512;2023-03-31T06:28:30;-1.00;99.90
10828;DHT22;5467;59.334;13.512;2023-03-31T06:31:00;-1.00;99.90
10828;DHT22;5467;59.334;13.512;2023-03-31T06:33:27;-1.00;99.90
10828;DHT22;5467;59.334;13.512;2023-03-31T06:35:55;-0.90;99.90
10828;DHT22;5467;59.334;13.512;2023-03-31T06:38:24;-0.90;99.90
10828;DHT22;5467;59.334;13.512;2023-03-31T06:40:53;-0.90;99.90
10828;DHT22;5467;59.334;13.512;2023-03-31T06:43:20;-0.90;99.90
10828;DHT22;5467;59.334;13.512;2023-03-31T06:45:47;-0.90;99.90
10828;DHT22;5467;59.334;13.512;2023-03-31T06:48:14;-1.00;99.90
10828;DHT22;5467;59.334;13.512;2023-03-31T06:50:41;-1.00;99.90
10828;DHT22;5467;59.334;13.512;2023-03-31T06:53:08;-0.90;99.90
10828;DHT22;5467;59.334;13.512;2023-03-31T06:55:36;-0.80;99.90
10828;DHT22;5467;59.334;13.512;2023-03-31T06:58:05;-0.70;99.90
10828;DHT22;5467;59.334;13.512;2023-03-31T07:00:32;-0.80;99.90
10828;DHT22;5467;59.334;13.512;2023-03-31T07:02:59;-0.70;99.90
10828;DHT22;5467;59.334;13.512;2023-03-31T07:05:29;-0.70;99.90
10828;DHT22;5467;59.334;13.512;2023-03-31T07:07:57;-0.70;99.90
10828;DHT22;5467;59.334;13.512;2023-03-31T07:10:26;-0.70;99.90
10828;DHT22;5467;59.334;13.512;2023-03-31T07:12:54;-0.80;99.90
10828;DHT22;5467;59.334;13.512;2023-03-31T07:15:23;-0.70;99.90
10828;DHT22;5467;59.334;13.512;2023-03-31T07:17:50;-0.60;99.90
10828;DHT22;5467;59.334;13.512;2023-03-31T07:20:19;-0.60;99.90
10828;DHT22;5467;59.334;13.512;2023-03-31T07:22:47;-0.60;99.90
10828;DHT22;5467;59.334;13.512;2023-03-31T07:25:16;-0.60;99.90
10828;DHT22;5467;59.334;13.512;2023-03-31T07:27:43;-0.60;99.90
10828;DHT22;5467;59.334;13.512;2023-03-31T07:30:12;-0.60;99.90
10828;DHT22;5467;59.334;13.512;2023-03-31T07:32:44;-0.60;99.90
10828;DHT22;5467;59.334;13.512;2023-03-31T07:35:12;-0.50;99.90
10828;DHT22;5467;59.334;13.512;2023-03-31T07:37:40;-0.60;99.90
10828;DHT22;5467;59.334;13.512;2023-03-31T07:40:10;-0.60;99.90
10828;DHT22;5467;59.334;13.512;2023-03-31T07:42:37;-0.50;99.90
10828;DHT22;5467;59.334;13.512;2023-03-31T07:45:07;-0.50;99.90
10828;DHT22;5467;59.334;13.512;2023-03-31T07:47:34;-0.30;99.90
10828;DHT22;5467;59.334;13.512;2023-03-31T07:50:03;-0.40;99.90
10828;DHT22;5467;59.334;13.512;2023-03-31T07:52:30;-0.30;99.90
10828;DHT22;5467;59.334;13.512;2023-03-31T07:54:57;-0.10;99.90
10828;DHT22;5467;59.334;13.512;2023-03-31T07:57:24;-0.10;99.90
10828;DHT22;5467;59.334;13.512;2023-03-31T07:59:51;-0.20;99.90
10828;DHT22;5467;59.334;13.512;2023-03-31T08:02:18;-0.10;99.90
10828;DHT22;5467;59.334;13.512;2023-03-31T08:04:52;-0.10;99.90
10828;DHT22;5467;59.334;13.512;2023-03-31T08:07:20;-0.20;99.90
10828;DHT22;5467;59.334;13.512;2023-03-31T09:25:52;1.00;99.90
10828;DHT22;5467;59.334;13.512;2023-03-31T09:28:21;1.30;99.90
10828;DHT22;5467;59.334;13.512;2023-03-31T09:30:49;1.00;99.90
10828;DHT22;5467;59.334;13.512;2023-03-31T09:33:17;0.70;99.90
10828;DHT22;5467;59.334;13.512;2023-03-31T09:35:45;0.90;99.90
10828;DHT22;5467;59.334;13.512;2023-03-31T09:38:13;1.00;99.90
10828;DHT22;5467;59.334;13.512;2023-03-31T09:40:42;0.90;99.90
10828;DHT22;5467;59.334;13.512;2023-03-31T09:43:16;0.70;99.90
10828;DHT22;5467;59.334;13.512;2023-03-31T09:45:45;0.60;99.90
10828;DHT22;5467;59.334;13.512;2023-03-31T09:48:15;0.70;99.90
10828;DHT22;5467;59.334;13.512;2023-03-31T09:50:45;0.70;99.90
10828;DHT22;5467;59.334;13.512;2023-03-31T09:53:19;0.80;99.90
10828;DHT22;5467;59.334;13.512;2023-03-31T09:55:51;0.70;99.90
10828;DHT22;5467;59.334;13.512;2023-03-31T09:58:20;0.90;99.90
10828;DHT22;5467;59.334;13.512;2023-03-31T10:00:58;1.00;99.90
10828;DHT22;5467;59.334;13.512;2023-03-31T10:03:27;1.00;99.90
10828;DHT22;5467;59.334;13.512;2023-03-31T10:06:01;1.00;99.90
10828;DHT22;5467;59.334;13.512;2023-03-31T10:08:38;1.00;99.90
10828;DHT22;5467;59.334;13.512;2023-03-31T10:11:08;1.00;99.90
10828;DHT22;5467;59.334;13.512;2023-03-31T10:13:42;1.10;99.90
10828;DHT22;5467;59.334;13.512;2023-03-31T10:16:13;1.10;99.90
10828;DHT22;5467;59.334;13.512;2023-03-31T10:18:42;1.30;99.90
10828;DHT22;5467;59.334;13.512;2023-03-31T10:21:19;1.30;99.90
10828;DHT22;5467;59.334;13.512;2023-03-31T10:23:47;1.30;99.90
10828;DHT22;5467;59.334;13.512;2023-03-31T10:26:17;1.30;99.90
10828;DHT22;5467;59.334;13.512;2023-03-31T10:28:47;1.30;99.90
10828;DHT22;5467;59.334;13.512;2023-03-31T10:31:17;1.50;99.90
10828;DHT22;5467;59.334;13.512;2023-03-31T10:33:47;1.60;99.90
10828;DHT22;5467;59.334;13.512;2023-03-31T10:36:20;1.80;99.90
10828;DHT22;5467;59.334;13.512;2023-03-31T10:38:49;2.00;99.90
10828;DHT22;5467;59.334;13.512;2023-03-31T10:41:19;1.80;99.90
10828;DHT22;5467;59.334;13.512;2023-03-31T10:43:50;1.90;99.90
10828;DHT22;5467;59.334;13.512;2023-03-31T10:46:18;1.90;99.90
10828;DHT22;5467;59.334;13.512;2023-03-31T10:48:45;1.70;99.90
10828;DHT22;5467;59.334;13.512;2023-03-31T10:51:16;1.70;99.90
10828;DHT22;5467;59.334;13.512;2023-03-31T10:53:45;1.70;99.90
10828;DHT22;5467;59.334;13.512;2023-03-31T10:56:33;1.70;99.90
10828;DHT22;5467;59.334;13.512;2023-03-31T10:59:18;1.90;99.90
10828;DHT22;5467;59.334;13.512;2023-03-31T11:01:59;2.00;99.90
10828;DHT22;5467;59.334;13.512;2023-03-31T11:04:44;2.10;99.90
10828;DHT22;5467;59.334;13.512;2023-03-31T11:07:24;2.20;99.90
10828;DHT22;5467;59.334;13.512;2023-03-31T11:10:08;2.30;99.90
10828;DHT22;5467;59.334;13.512;2023-03-31T11:12:39;2.20;99.90
10828;DHT22;5467;59.334;13.512;2023-03-31T11:15:20;2.20;99.90
10828;DHT22;5467;59.334;13.512;2023-03-31T11:18:02;2.30;99.90
10828;DHT22;5467;59.334;13.512;2023-03-31T11:20:36;2.20;99.90
10828;DHT22;5467;59.334;13.512;2023-03-31T11:23:14;2.40;99.90
10828;DHT22;5467;59.334;13.512;2023-03-31T11:25:48;2.50;99.90
10828;DHT22;5467;59.334;13.512;2023-03-31T11:31:26;2.90;99.90
10828;DHT22;5467;59.334;13.512;2023-03-31T11:34:06;3.10;99.90
10828;DHT22;5467;59.334;13.512;2023-03-31T11:36:47;3.00;99.90
10828;DHT22;5467;59.334;13.512;2023-03-31T11:39:28;2.90;99.90
10828;DHT22;5467;59.334;13.512;2023-03-31T11:42:01;2.90;99.90
10828;DHT22;5467;59.334;13.512;2023-03-31T11:44:35;3.00;99.90
10828;DHT22;5467;59.334;13.512;2023-03-31T11:47:07;2.90;99.90
10828;DHT22;5467;59.334;13.512;2023-03-31T11:49:38;2.80;99.90
10828;DHT22;5467;59.334;13.512;2023-03-31T11:52:12;2.40;99.90
10828;DHT22;5467;59.334;13.512;2023-03-31T11:54:45;2.30;99.90
10828;DHT22;5467;59.334;13.512;2023-03-31T11:57:19;2.40;99.90
10828;DHT22;5467;59.334;13.512;2023-03-31T11:59:52;2.60;99.90
10828;DHT22;5467;59.334;13.512;2023-03-31T12:02:26;2.70;99.90
10828;DHT22;5467;59.334;13.512;2023-03-31T12:04:58;2.60;99.90
10828;DHT22;5467;59.334;13.512;2023-03-31T12:07:30;2.70;99.90
10828;DHT22;5467;59.334;13.512;2023-03-31T12:10:02;2.60;99.90
10828;DHT22;5467;59.334;13.512;2023-03-31T12:12:33;2.60;99.90
10828;DHT22;5467;59.334;13.512;2023-03-31T12:15:09;2.70;99.90
10828;DHT22;5467;59.334;13.512;2023-03-31T12:17:40;2.90;99.90
10828;DHT22;5467;59.334;13.512;2023-03-31T12:20:14;2.90;99.90
10828;DHT22;5467;59.334;13.512;2023-03-31T12:22:44;2.90;99.90
10828;DHT22;5467;59.334;13.512;2023-03-31T12:25:14;3.20;99.90
10828;DHT22;5467;59.334;13.512;2023-03-31T12:27:43;3.30;99.90
10828;DHT22;5467;59.334;13.512;2023-03-31T12:30:29;3.40;99.90
10828;DHT22;5467;59.334;13.512;2023-03-31T12:33:04;3.60;99.90
10828;DHT22;5467;59.334;13.512;2023-03-31T12:35:40;3.40;99.90
10828;DHT22;5467;59.334;13.512;2023-03-31T12:38:15;3.60;99.90
10828;DHT22;5467;59.334;13.512;2023-03-31T12:40:56;3.70;99.90
10828;DHT22;5467;59.334;13.512;2023-03-31T12:43:36;3.80;99.90
10828;DHT22;5467;59.334;13.512;2023-03-31T12:49:32;3.90;99.90
10828;DHT22;5467;59.334;13.512;2023-03-31T12:52:06;3.90;99.90
10828;DHT22;5467;59.334;13.512;2023-03-31T12:57:38;3.60;99.90
10828;DHT22;5467;59.334;13.512;2023-03-31T13:00:22;3.60;99.90
10828;DHT22;5467;59.334;13.512;2023-03-31T13:06:00;4.10;99.90
10828;DHT22;5467;59.334;13.512;2023-03-31T13:08:48;4.20;99.90
10828;DHT22;5467;59.334;13.512;2023-03-31T13:11:17;4.10;99.90
10828;DHT22;5467;59.334;13.512;2023-03-31T13:13:45;4.00;99.90
10828;DHT22;5467;59.334;13.512;2023-03-31T13:16:18;3.90;99.90
10828;DHT22;5467;59.334;13.512;2023-03-31T13:18:50;3.90;99.90
10828;DHT22;5467;59.334;13.512;2023-03-31T13:21:20;4.20;99.90
10828;DHT22;5467;59.334;13.512;2023-03-31T13:23:48;3.90;99.90
10828;DHT22;5467;59.334;13.512;2023-03-31T13:26:38;3.90;99.90
10828;DHT22;5467;59.334;13.512;2023-03-31T13:29:20;4.00;99.90
10828;DHT22;5467;59.334;13.512;2023-03-31T13:32:24;4.00;99.90
10828;DHT22;5467;59.334;13.512;2023-03-31T13:34:57;3.80;99.90
10828;DHT22;5467;59.334;13.512;2023-03-31T13:37:56;4.00;99.90
10828;DHT22;5467;59.334;13.512;2023-03-31T13:40:40;4.10;99.90
10828;DHT22;5467;59.334;13.512;2023-03-31T13:43:27;4.30;99.90
10828;DHT22;5467;59.334;13.512;2023-03-31T13:46:13;4.20;99.90
10828;DHT22;5467;59.334;13.512;2023-03-31T13:48:53;4.00;99.90
10828;DHT22;5467;59.334;13.512;2023-03-31T13:51:49;3.90;99.90
10828;DHT22;5467;59.334;13.512;2023-03-31T13:54:43;3.90;99.90
10828;DHT22;5467;59.334;13.512;2023-03-31T13:57:51;4.00;99.90
10828;DHT22;5467;59.334;13.512;2023-03-31T14:00:33;3.80;99.90
10828;DHT22;5467;59.334;13.512;2023-03-31T14:03:16;3.80;99.90
10828;DHT22;5467;59.334;13.512;2023-03-31T14:05:51;3.80;99.90
10828;DHT22;5467;59.334;13.512;2023-03-31T14:08:32;3.60;99.90
10828;DHT22;5467;59.334;13.512;2023-03-31T14:11:19;3.60;99.90
10828;DHT22;5467;59.334;13.512;2023-03-31T14:14:02;3.50;99.90
10828;DHT22;5467;59.334;13.512;2023-03-31T14:16:33;3.50;99.90
10828;DHT22;5467;59.334;13.512;2023-03-31T14:19:28;3.50;99.90
10828;DHT22;5467;59.334;13.512;2023-03-31T14:22:05;3.40;99.90
10828;DHT22;5467;59.334;13.512;2023-03-31T14:24:43;3.40;99.30
10828;DHT22;5467;59.334;13.512;2023-03-31T14:27:23;3.30;98.60
10828;DHT22;5467;59.334;13.512;2023-03-31T14:29:58;3.40;99.90
10828;DHT22;5467;59.334;13.512;2023-03-31T14:32:32;3.40;99.90
10828;DHT22;5467;59.334;13.512;2023-03-31T14:35:18;3.40;99.90
10828;DHT22;5467;59.334;13.512;2023-03-31T14:37:48;3.40;99.60
10828;DHT22;5467;59.334;13.512;2023-03-31T14:40:16;3.40;98.90
10828;DHT22;5467;59.334;13.512;2023-03-31T14:42:46;3.40;98.40
10828;DHT22;5467;59.334;13.512;2023-03-31T14:45:17;3.50;98.40
10828;DHT22;5467;59.334;13.512;2023-03-31T14:47:56;3.40;98.70
10828;DHT22;5467;59.334;13.512;2023-03-31T14:50:29;3.50;99.60
10828;DHT22;5467;59.334;13.512;2023-03-31T14:52:57;3.60;99.90
10828;DHT22;5467;59.334;13.512;2023-03-31T14:55:28;3.50;99.70
10828;DHT22;5467;59.334;13.512;2023-03-31T14:57:59;3.40;99.90
10828;DHT22;5467;59.334;13.512;2023-03-31T15:00:29;3.50;99.90
10828;DHT22;5467;59.334;13.512;2023-03-31T15:02:59;3.50;99.90
10828;DHT22;5467;59.334;13.512;2023-03-31T15:05:29;3.50;99.90
10828;DHT22;5467;59.334;13.512;2023-03-31T15:07:57;3.60;99.90
10828;DHT22;5467;59.334;13.512;2023-03-31T15:10:29;3.60;99.90
10828;DHT22;5467;59.334;13.512;2023-03-31T15:13:00;3.60;99.90
10828;DHT22;5467;59.334;13.512;2023-03-31T15:15:33;3.60;99.90
10828;DHT22;5467;59.334;13.512;2023-03-31T15:18:00;3.70;99.90
10828;DHT22;5467;59.334;13.512;2023-03-31T15:20:29;3.70;99.90
10828;DHT22;5467;59.334;13.512;2023-03-31T15:22:58;3.60;99.90
10828;DHT22;5467;59.334;13.512;2023-03-31T15:25:30;3.80;99.90
10828;DHT22;5467;59.334;13.512;2023-03-31T15:28:03;3.80;99.90
10828;DHT22;5467;59.334;13.512;2023-03-31T15:30:31;3.70;99.90
10828;DHT22;5467;59.334;13.512;2023-03-31T15:32:59;3.60;99.90
10828;DHT22;5467;59.334;13.512;2023-03-31T15:35:29;3.60;99.90
10828;DHT22;5467;59.334;13.512;2023-03-31T15:37:59;3.40;99.90
10828;DHT22;5467;59.334;13.512;2023-03-31T15:40:28;3.30;99.90
10828;DHT22;5467;59.334;13.512;2023-03-31T15:42:58;3.30;99.90
10828;DHT22;5467;59.334;13.512;2023-03-31T15:45:45;3.30;99.90
10828;DHT22;5467;59.334;13.512;2023-03-31T15:48:21;3.20;99.90
10828;DHT22;5467;59.334;13.512;2023-03-31T15:50:49;3.20;99.90
10828;DHT22;5467;59.334;13.512;2023-03-31T15:53:28;3.20;99.90
10828;DHT22;5467;59.334;13.512;2023-03-31T15:55:56;3.20;99.90
10828;DHT22;5467;59.334;13.512;2023-03-31T15:58:55;3.20;99.90
10828;DHT22;5467;59.334;13.512;2023-03-31T16:01:27;3.10;99.90
10828;DHT22;5467;59.334;13.512;2023-03-31T16:03:57;3.10;99.90
10828;DHT22;5467;59.334;13.512;2023-03-31T16:06:36;3.10;99.90
10828;DHT22;5467;59.334;13.512;2023-03-31T16:09:06;3.00;99.90
10828;DHT22;5467;59.334;13.512;2023-03-31T16:11:38;2.90;99.90
10828;DHT22;5467;59.334;13.512;2023-03-31T16:14:12;2.70;99.90
10828;DHT22;5467;59.334;13.512;2023-03-31T16:16:47;2.60;99.90
10828;DHT22;5467;59.334;13.512;2023-03-31T16:19:15;2.50;99.90
10828;DHT22;5467;59.334;13.512;2023-03-31T16:21:47;2.30;99.90
10828;DHT22;5467;59.334;13.512;2023-03-31T16:24:18;2.40;99.90
10828;DHT22;5467;59.334;13.512;2023-03-31T16:26:46;2.50;99.90
10828;DHT22;5467;59.334;13.512;2023-03-31T16:29:19;2.60;99.90
10828;DHT22;5467;59.334;13.512;2023-03-31T16:31:48;2.50;99.90
10828;DHT22;5467;59.334;13.512;2023-03-31T16:34:15;2.40;99.90
10828;DHT22;5467;59.334;13.512;2023-03-31T16:36:43;2.30;99.90
10828;DHT22;5467;59.334;13.512;2023-03-31T16:39:10;2.30;99.90
10828;DHT22;5467;59.334;13.512;2023-03-31T16:41:37;2.40;99.90
10828;DHT22;5467;59.334;13.512;2023-03-31T16:44:04;2.20;99.90
10828;DHT22;5467;59.334;13.512;2023-03-31T16:46:32;2.30;99.90
10828;DHT22;5467;59.334;13.512;2023-03-31T16:49:00;2.20;99.90
10828;DHT22;5467;59.334;13.512;2023-03-31T16:51:27;2.20;99.90
10828;DHT22;5467;59.334;13.512;2023-03-31T16:53:54;2.10;99.90
10828;DHT22;5467;59.334;13.512;2023-03-31T16:56:21;2.10;99.90
10828;DHT22;5467;59.334;13.512;2023-03-31T16:58:48;2.00;99.90
10828;DHT22;5467;59.334;13.512;2023-03-31T17:01:16;1.90;99.90
10828;DHT22;5467;59.334;13.512;2023-03-31T17:03:43;1.80;99.90
10828;DHT22;5467;59.334;13.512;2023-03-31T17:06:14;1.80;99.90
10828;DHT22;5467;59.334;13.512;2023-03-31T17:08:41;1.60;99.90
10828;DHT22;5467;59.334;13.512;2023-03-31T17:11:09;1.40;99.90
10828;DHT22;5467;59.334;13.512;2023-03-31T17:13:39;1.30;99.90
10828;DHT22;5467;59.334;13.512;2023-03-31T17:16:08;1.10;99.90
10828;DHT22;5467;59.334;13.512;2023-03-31T17:18:36;1.10;99.90
10828;DHT22;5467;59.334;13.512;2023-03-31T17:21:05;1.10;99.90
10828;DHT22;5467;59.334;13.512;2023-03-31T17:23:34;1.20;99.90
10828;DHT22;5467;59.334;13.512;2023-03-31T17:26:02;1.30;99.90
10828;DHT22;5467;59.334;13.512;2023-03-31T17:28:31;1.10;99.90
10828;DHT22;5467;59.334;13.512;2023-03-31T17:30:58;0.80;99.90
10828;DHT22;5467;59.334;13.512;2023-03-31T17:33:25;0.90;99.90
10828;DHT22;5467;59.334;13.512;2023-03-31T17:35:55;0.90;99.90
10828;DHT22;5467;59.334;13.512;2023-03-31T17:38:23;0.70;99.90
10828;DHT22;5467;59.334;13.512;2023-03-31T17:40:52;0.60;99.90
10828;DHT22;5467;59.334;13.512;2023-03-31T17:43:19;0.60;99.90
10828;DHT22;5467;59.334;13.512;2023-03-31T17:45:46;0.50;99.90
10828;DHT22;5467;59.334;13.512;2023-03-31T17:48:14;0.40;99.90
10828;DHT22;5467;59.334;13.512;2023-03-31T17:50:41;0.30;99.90
10828;DHT22;5467;59.334;13.512;2023-03-31T17:53:08;0.20;99.90